createdAt,value
2019-01-02T00:02:08.112Z,83.60
2019-01-02T00:04:38.601Z,83.80
2019-01-02T00:07:09.754Z,83.40
2019-01-02T00:09:40.162Z,83.20
2019-01-02T00:12:11.145Z,82.90
2019-01-02T00:14:41.688Z,83.10
2019-01-02T00:17:12.389Z,83.00
2019-01-02T00:19:42.795Z,83.40
2019-01-02T00:22:17.502Z,83.30
2019-01-02T00:24:48.065Z,83.50
2019-01-02T00:27:36.346Z,83.30
2019-01-02T00:29:50.785Z,83.50
2019-01-02T00:32:30.590Z,83.90
2019-01-02T00:35:01.034Z,84.20
2019-01-02T00:37:31.404Z,84.70
2019-01-02T00:40:01.737Z,85.00
2019-01-02T00:42:32.686Z,85.20
2019-01-02T00:45:03.074Z,85.60
2019-01-02T00:47:33.637Z,86.00
2019-01-02T00:50:04.250Z,86.40
2019-01-02T00:52:35.092Z,86.70
2019-01-02T00:55:05.770Z,87.10
2019-01-02T00:57:36.607Z,87.40
2019-01-02T01:00:09.479Z,87.60
2019-01-02T01:02:40.413Z,87.90
2019-01-02T01:05:10.753Z,88.00
2019-01-02T01:07:41.667Z,88.20
2019-01-02T01:10:14.762Z,88.50
2019-01-02T01:12:45.481Z,89.50
2019-01-02T01:15:15.882Z,89.80
2019-01-02T01:17:47.129Z,90.00
2019-01-02T01:20:18.615Z,90.10
2019-01-02T01:22:48.972Z,90.40
2019-01-02T01:25:19.574Z,90.30
2019-01-02T01:27:49.923Z,90.60
2019-01-02T01:30:20.766Z,90.80
2019-01-02T01:32:51.149Z,91.10
2019-01-02T01:35:21.501Z,91.70
2019-01-02T01:37:52.273Z,91.50
2019-01-02T01:40:22.674Z,91.80
2019-01-02T01:42:53.068Z,91.80
2019-01-02T01:45:23.899Z,92.10
2019-01-02T01:47:54.645Z,92.30
2019-01-02T01:50:24.982Z,92.60
2019-01-02T01:52:55.296Z,93.00
2019-01-02T01:55:25.810Z,93.10
2019-01-02T01:57:56.787Z,93.20
2019-01-02T02:00:27.124Z,93.30
2019-01-02T02:02:57.614Z,93.70
2019-01-02T02:05:28.440Z,94.50
2019-01-02T02:07:58.776Z,94.90
2019-01-02T02:10:29.260Z,95.40
2019-01-02T02:12:59.829Z,95.70
2019-01-02T02:15:30.126Z,95.70
2019-01-02T02:18:01.232Z,96.00
2019-01-02T02:20:31.601Z,96.10
2019-01-02T02:23:01.921Z,96.40
2019-01-02T02:25:34.041Z,97.10
2019-01-02T02:28:04.370Z,97.60
2019-01-02T02:30:35.398Z,98.00
2019-01-02T02:33:05.779Z,99.00
2019-01-02T02:35:36.116Z,99.30
2019-01-02T02:38:06.773Z,99.70
2019-01-02T02:40:37.232Z,99.90
2019-01-02T02:43:07.588Z,99.90
2019-01-02T02:45:37.952Z,99.90
2019-01-02T02:48:08.963Z,99.90
2019-01-02T02:50:39.717Z,99.90
2019-01-02T02:53:10.573Z,99.90
2019-01-02T02:55:41.491Z,99.90
2019-01-02T02:58:12.191Z,99.90
2019-01-02T03:00:43.342Z,99.90
2019-01-02T03:03:14.159Z,99.90
2019-01-02T03:05:44.564Z,99.90
2019-01-02T03:08:14.923Z,99.90
2019-01-02T03:10:45.785Z,99.90
2019-01-02T03:13:16.690Z,99.90
2019-01-02T03:15:47.516Z,99.90
2019-01-02T03:18:18.629Z,99.90
2019-01-02T03:20:49.063Z,99.90
2019-01-02T03:23:19.429Z,99.90
2019-01-02T03:25:50.098Z,99.90
2019-01-02T03:28:21.166Z,99.90
2019-01-02T03:30:51.886Z,99.90
2019-01-02T03:33:22.804Z,99.90
2019-01-02T03:35:53.277Z,99.90
2019-01-02T03:38:23.604Z,99.90
2019-01-02T03:40:53.892Z,99.90
2019-01-02T03:43:24.408Z,99.90
2019-01-02T03:45:54.864Z,99.90
2019-01-02T03:48:25.256Z,99.90
2019-01-02T03:50:55.743Z,99.90
2019-01-02T03:53:26.023Z,99.90
2019-01-02T03:55:56.375Z,99.90
2019-01-02T03:58:26.853Z,99.90
2019-01-02T04:00:57.143Z,99.90
2019-01-02T04:03:27.490Z,99.90
2019-01-02T04:05:57.859Z,99.90
2019-01-02T04:08:28.627Z,99.90
2019-01-02T04:10:58.961Z,99.90
2019-01-02T04:13:29.421Z,99.90
2019-01-02T04:15:59.769Z,99.90
2019-01-02T04:18:30.241Z,99.90
2019-01-02T04:21:00.852Z,99.90
2019-01-02T04:23:31.172Z,99.90
2019-01-02T04:26:01.480Z,99.90
2019-01-02T04:28:31.945Z,99.90
2019-01-02T04:31:02.318Z,99.90
2019-01-02T04:33:32.637Z,99.90
2019-01-02T04:36:03.060Z,99.90
2019-01-02T04:38:33.343Z,99.90
2019-01-02T04:41:03.893Z,99.90
2019-01-02T04:43:34.382Z,99.90
2019-01-02T04:46:04.748Z,99.90
2019-01-02T04:48:35.130Z,99.90
2019-01-02T04:51:05.628Z,99.90
2019-01-02T04:53:35.956Z,99.90
2019-01-02T04:56:06.298Z,99.90
2019-01-02T04:58:36.813Z,99.90
2019-01-02T05:01:07.118Z,99.90
2019-01-02T05:03:37.477Z,99.90
2019-01-02T05:06:07.889Z,99.90
2019-01-02T05:08:38.266Z,99.90
2019-01-02T05:11:08.612Z,99.90
2019-01-02T05:13:39.081Z,99.90
2019-01-02T05:16:09.414Z,99.90
2019-01-02T05:18:39.730Z,99.90
2019-01-02T05:21:10.161Z,99.90
2019-01-02T05:23:40.736Z,99.90
2019-01-02T05:26:11.114Z,99.90
2019-01-02T05:28:41.558Z,99.90
2019-01-02T05:31:11.940Z,99.90
2019-01-02T05:33:42.250Z,99.90
2019-01-02T05:36:12.733Z,99.90
2019-01-02T05:38:43.064Z,99.90
2019-01-02T05:41:13.463Z,99.90
2019-01-02T05:43:43.894Z,99.90
2019-01-02T05:46:14.226Z,99.90
2019-01-02T05:48:44.555Z,99.90
2019-01-02T05:51:15.024Z,99.90
2019-01-02T05:53:45.285Z,99.90
2019-01-02T05:56:15.632Z,99.90
2019-01-02T05:58:46.091Z,99.90
2019-01-02T06:01:16.426Z,99.90
2019-01-02T06:03:46.778Z,99.90
2019-01-02T06:06:17.220Z,99.90
2019-01-02T06:08:47.529Z,99.90
2019-01-02T06:11:18.120Z,99.90
2019-01-02T06:13:48.581Z,99.90
2019-01-02T06:16:18.911Z,99.90
2019-01-02T06:18:49.270Z,99.90
2019-01-02T06:21:19.698Z,99.90
2019-01-02T06:23:50.228Z,99.90
2019-01-02T06:26:20.639Z,99.90
2019-01-02T06:28:51.073Z,99.90
2019-01-02T06:31:21.399Z,99.90
2019-01-02T06:33:51.732Z,99.90
2019-01-02T06:36:22.181Z,99.90
2019-01-02T06:38:52.541Z,99.90
2019-01-02T06:41:22.902Z,99.90
2019-01-02T06:43:53.364Z,99.90
2019-01-02T06:46:23.725Z,99.90
2019-01-02T06:48:54.113Z,99.90
2019-01-02T06:51:24.514Z,99.90
2019-01-02T06:53:54.843Z,99.90
2019-01-02T06:56:25.156Z,99.90
2019-01-02T06:58:55.634Z,99.90
2019-01-02T07:01:25.973Z,99.90
2019-01-02T07:03:56.334Z,99.90
2019-01-02T07:06:26.761Z,99.90
2019-01-02T07:08:57.093Z,99.90
2019-01-02T07:11:27.456Z,99.90
2019-01-02T07:13:57.992Z,99.90
2019-01-02T07:16:28.337Z,99.90
2019-01-02T07:18:58.663Z,99.90
2019-01-02T07:21:29.075Z,99.90
2019-01-02T07:23:59.405Z,99.90
2019-01-02T07:26:29.969Z,99.90
2019-01-02T07:29:00.493Z,99.90
2019-01-02T07:31:30.861Z,99.90
2019-01-02T07:34:03.564Z,99.90
2019-01-02T07:36:57.644Z,99.90
2019-01-02T07:39:47.032Z,99.90
2019-01-02T07:42:40.872Z,99.90
2019-01-02T07:45:22.945Z,99.90
2019-01-02T07:48:10.856Z,99.90
2019-01-02T07:50:43.810Z,99.90
2019-01-02T07:53:31.791Z,99.90
2019-01-02T07:56:32.005Z,99.90
2019-01-02T07:59:25.330Z,99.90
2019-01-02T08:02:01.206Z,99.90
2019-01-02T08:04:57.674Z,99.90
2019-01-02T08:07:39.629Z,99.90
2019-01-02T08:10:28.603Z,99.90
2019-01-02T08:13:18.053Z,99.90
2019-01-02T08:16:07.245Z,99.90
2019-01-02T08:19:05.628Z,99.90
2019-01-02T08:21:44.344Z,99.90
2019-01-02T08:24:36.719Z,99.90
2019-01-02T08:27:18.543Z,99.90
2019-01-02T08:29:57.221Z,99.90
2019-01-02T08:32:42.477Z,99.90
2019-01-02T08:35:18.274Z,99.90
2019-01-02T08:37:56.773Z,99.90
2019-01-02T08:40:44.731Z,99.90
2019-01-02T08:43:29.634Z,99.90
2019-01-02T08:46:32.333Z,99.90
2019-01-02T08:49:38.131Z,99.90
2019-01-02T08:52:26.384Z,99.90
2019-01-02T08:55:20.108Z,99.90
2019-01-02T08:58:09.623Z,99.90
2019-01-02T09:00:57.844Z,99.90
2019-01-02T09:03:42.626Z,99.90
2019-01-02T09:06:27.532Z,99.90
2019-01-02T09:09:20.341Z,99.90
2019-01-02T09:12:17.465Z,99.90
2019-01-02T09:15:08.489Z,99.90
2019-01-02T09:17:57.898Z,99.90
2019-01-02T09:20:33.375Z,99.90
2019-01-02T09:23:18.301Z,99.90
2019-01-02T09:26:07.639Z,99.90
2019-01-02T09:29:11.400Z,99.90
2019-01-02T09:32:04.030Z,99.90
2019-01-02T09:35:07.306Z,99.90
2019-01-02T09:37:42.787Z,99.90
2019-01-02T09:40:27.345Z,99.90
2019-01-02T09:43:09.188Z,99.90
2019-01-02T09:45:56.966Z,99.90
2019-01-02T09:48:29.943Z,99.90
2019-01-02T09:51:11.837Z,99.90
2019-01-02T09:53:53.877Z,99.90
2019-01-02T09:56:41.634Z,99.90
2019-01-02T09:59:23.829Z,99.90
2019-01-02T10:02:17.614Z,99.90
2019-01-02T10:05:02.495Z,99.90
2019-01-02T10:07:44.245Z,99.90
2019-01-02T10:10:17.221Z,99.90
2019-01-02T10:13:07.985Z,99.90
2019-01-02T10:15:41.016Z,99.90
2019-01-02T10:18:48.844Z,99.90
2019-01-02T10:21:30.549Z,99.90
2019-01-02T10:24:15.229Z,99.90
2019-01-02T10:26:48.110Z,99.90
2019-01-02T10:29:21.236Z,99.90
2019-01-02T10:32:12.160Z,99.90
2019-01-02T10:34:50.960Z,99.90
2019-01-02T10:37:26.687Z,99.90
2019-01-02T10:40:05.369Z,99.90
2019-01-02T10:42:50.419Z,99.90
2019-01-02T10:45:35.429Z,99.90
2019-01-02T10:48:17.329Z,99.90
2019-01-02T10:50:59.081Z,99.90
2019-01-02T10:53:37.607Z,99.90
2019-01-02T10:56:16.443Z,99.90
2019-01-02T10:59:15.018Z,99.90
2019-01-02T11:01:59.725Z,99.90
2019-01-02T11:04:35.231Z,99.90
2019-01-02T11:07:27.616Z,99.90
2019-01-02T11:10:09.195Z,99.90
2019-01-02T11:12:54.135Z,99.90
2019-01-02T11:15:35.858Z,99.90
2019-01-02T11:18:20.542Z,99.90
2019-01-02T11:21:02.755Z,99.90
2019-01-02T11:23:53.411Z,99.90
2019-01-02T11:26:26.365Z,99.90
2019-01-02T11:29:08.279Z,99.90
2019-01-02T11:31:59.897Z,99.90
2019-01-02T11:34:44.613Z,99.90
2019-01-02T11:37:26.698Z,99.90
2019-01-02T11:40:17.881Z,99.90
2019-01-02T11:42:53.768Z,99.90
2019-01-02T11:45:24.596Z,99.90
2019-01-02T11:47:55.057Z,99.90
2019-01-02T11:50:25.475Z,99.90
2019-01-02T11:52:55.844Z,99.90
2019-01-02T11:55:26.198Z,99.90
2019-01-02T11:57:56.671Z,99.90
2019-01-02T12:00:27.007Z,99.90
2019-01-02T12:02:57.281Z,99.90
2019-01-02T12:05:27.706Z,99.90
2019-01-02T12:07:58.082Z,99.90
2019-01-02T12:10:28.518Z,99.90
2019-01-02T12:12:59.001Z,99.90
2019-01-02T12:15:29.288Z,99.90
2019-01-02T12:17:59.677Z,99.90
2019-01-02T12:20:30.097Z,99.90
2019-01-02T12:23:00.443Z,99.90
2019-01-02T12:25:30.781Z,99.90
2019-01-02T12:28:01.199Z,99.90
2019-01-02T12:30:31.542Z,99.90
2019-01-02T12:33:02.140Z,99.90
2019-01-02T12:35:32.518Z,99.90
2019-01-02T12:38:02.885Z,99.90
2019-01-02T12:40:33.242Z,99.90
2019-01-02T12:43:03.784Z,99.90
2019-01-02T12:45:34.167Z,99.90
2019-01-02T12:48:04.466Z,99.90
2019-01-02T12:50:34.847Z,99.90
2019-01-02T12:53:05.470Z,99.90
2019-01-02T12:55:35.815Z,99.90
2019-01-02T12:58:06.311Z,99.90
2019-01-02T13:00:41.762Z,99.90
2019-01-02T13:03:17.561Z,99.90
2019-01-02T13:05:50.380Z,99.90
2019-01-02T13:08:23.319Z,99.90
2019-01-02T13:11:11.350Z,99.90
2019-01-02T13:13:59.509Z,99.90
2019-01-02T13:16:50.232Z,99.90
2019-01-02T13:19:39.319Z,99.90
2019-01-02T13:22:17.817Z,99.90
2019-01-02T13:24:56.631Z,99.90
2019-01-02T13:27:32.588Z,99.90
2019-01-02T13:30:31.432Z,99.90
2019-01-02T13:33:04.333Z,99.90
2019-01-02T13:35:41.607Z,99.90
2019-01-02T13:38:26.228Z,99.90
2019-01-02T13:41:02.292Z,99.90
2019-01-02T13:44:06.135Z,99.90
2019-01-02T13:46:54.066Z,99.90
2019-01-02T13:49:27.123Z,99.90
2019-01-02T13:51:57.585Z,99.90
2019-01-02T13:54:28.014Z,99.90
2019-01-02T13:56:58.362Z,99.90
2019-01-02T13:59:28.780Z,99.90
2019-01-02T14:01:59.466Z,99.90
2019-01-02T14:04:48.991Z,99.90
2019-01-02T14:07:19.373Z,99.90
2019-01-02T14:09:49.664Z,99.90
2019-01-02T14:12:20.112Z,99.90
2019-01-02T14:14:50.435Z,99.90
2019-01-02T14:17:20.774Z,99.90
2019-01-02T14:19:51.301Z,99.90
2019-01-02T14:22:21.602Z,99.90
2019-01-02T14:24:51.933Z,99.90
2019-01-02T14:27:22.322Z,99.90
2019-01-02T14:29:52.688Z,99.90
2019-01-02T14:32:23.068Z,99.90
2019-01-02T14:34:54.042Z,99.90
2019-01-02T14:37:24.679Z,99.90
2019-01-02T14:39:55.064Z,99.90
2019-01-02T14:42:25.511Z,99.90
2019-01-02T14:44:55.976Z,99.90
2019-01-02T14:47:26.335Z,99.90
2019-01-02T14:49:57.007Z,99.90
2019-01-02T14:52:27.784Z,99.90
2019-01-02T14:54:58.819Z,99.90
2019-01-02T14:57:29.493Z,99.90
2019-01-02T14:59:59.790Z,99.90
2019-01-02T15:02:30.170Z,99.90
2019-01-02T15:05:00.677Z,99.90
2019-01-02T15:07:31.023Z,99.90
2019-01-02T15:10:01.387Z,99.20
2019-01-02T15:12:31.823Z,98.40
2019-01-02T15:15:02.181Z,97.50
2019-01-02T15:17:32.497Z,96.20
2019-01-02T15:20:02.996Z,95.40
2019-01-02T15:22:33.338Z,94.70
2019-01-02T15:25:03.674Z,93.40
2019-01-02T15:27:34.074Z,93.10
2019-01-02T15:30:04.365Z,92.50
2019-01-02T15:32:37.360Z,92.00
2019-01-02T15:35:08.757Z,91.50
2019-01-02T15:37:39.092Z,91.40
2019-01-02T15:40:10.929Z,90.80
2019-01-02T15:42:41.357Z,89.70
2019-01-02T15:45:11.813Z,88.30
2019-01-02T15:47:42.234Z,88.90
2019-01-02T15:50:13.438Z,88.80
2019-01-02T15:52:43.766Z,89.30
2019-01-02T15:55:14.085Z,90.10
2019-01-02T15:57:44.494Z,91.20
2019-01-02T16:00:15.247Z,90.60
2019-01-02T16:02:46.853Z,90.50
2019-01-02T16:05:17.324Z,88.80
2019-01-02T16:07:47.990Z,86.50
2019-01-02T16:10:20.180Z,85.30
2019-01-02T16:12:50.569Z,83.60
2019-01-02T16:15:20.890Z,81.80
2019-01-02T16:17:51.279Z,80.00
2019-01-02T16:20:21.752Z,82.60
2019-01-02T16:22:54.607Z,81.40
2019-01-02T16:25:25.440Z,79.10
2019-01-02T16:27:55.847Z,79.90
2019-01-02T16:30:26.164Z,78.50
2019-01-02T16:32:56.563Z,76.50
2019-01-02T16:35:26.912Z,75.90
2019-01-02T16:37:57.205Z,76.90
2019-01-02T16:40:27.658Z,75.80
2019-01-02T16:42:58.457Z,77.30
2019-01-02T16:45:28.837Z,77.70
2019-01-02T16:47:59.232Z,76.40
2019-01-02T16:50:29.533Z,72.80
2019-01-02T16:52:59.905Z,71.70
2019-01-02T16:55:31.749Z,73.20
2019-01-02T16:58:02.394Z,72.30
2019-01-02T17:00:32.679Z,70.70
2019-01-02T17:03:03.257Z,70.40
2019-01-02T17:05:33.570Z,70.10
2019-01-02T17:08:07.649Z,66.60
2019-01-02T17:10:38.496Z,66.00
2019-01-02T17:13:08.868Z,67.90
2019-01-02T17:15:39.368Z,66.70
2019-01-02T17:18:11.174Z,67.10
2019-01-02T17:20:41.600Z,67.00
2019-01-02T17:23:12.202Z,66.60
2019-01-02T17:25:42.489Z,66.40
2019-01-02T17:28:14.134Z,67.50
2019-01-02T17:30:44.592Z,66.00
2019-01-02T17:33:14.945Z,63.90
2019-01-02T17:35:45.382Z,64.50
2019-01-02T17:38:15.718Z,65.40
2019-01-02T17:40:46.086Z,63.20
2019-01-02T17:43:16.501Z,65.30
2019-01-02T17:45:47.227Z,63.50
2019-01-02T17:48:17.593Z,61.80
2019-01-02T17:50:48.085Z,63.00
2019-01-02T17:53:18.413Z,64.00
2019-01-02T17:55:48.752Z,65.00
2019-01-02T17:58:19.262Z,64.20
2019-01-02T18:00:49.786Z,62.40
2019-01-02T18:03:20.181Z,60.40
2019-01-02T18:05:50.844Z,59.60
2019-01-02T18:08:21.159Z,61.30
2019-01-02T18:10:51.536Z,62.20
2019-01-02T18:13:21.988Z,62.30
2019-01-02T18:15:52.328Z,60.90
2019-01-02T18:18:22.624Z,62.00
2019-01-02T18:20:53.060Z,61.50
2019-01-02T18:23:23.364Z,62.50
2019-01-02T18:25:53.744Z,61.20
2019-01-02T18:28:24.173Z,61.00
2019-01-02T18:30:54.654Z,62.30
2019-01-02T18:33:25.086Z,60.50
2019-01-02T18:35:55.581Z,60.20
2019-01-02T18:38:25.947Z,59.20
2019-01-02T18:40:56.300Z,60.00
2019-01-02T18:43:26.692Z,59.60
2019-01-02T18:45:57.026Z,59.20
2019-01-02T18:48:28.811Z,58.10
2019-01-02T18:50:59.313Z,57.80
2019-01-02T18:53:29.649Z,57.00
2019-01-02T18:56:00.011Z,57.40
2019-01-02T18:58:30.376Z,57.80
2019-01-02T19:01:00.866Z,60.10
2019-01-02T19:03:31.249Z,60.00
2019-01-02T19:06:01.720Z,60.60
2019-01-02T19:08:32.092Z,61.70
2019-01-02T19:11:02.441Z,61.70
2019-01-02T19:13:32.829Z,62.10
2019-01-02T19:16:03.202Z,61.00
2019-01-02T19:18:33.522Z,59.70
2019-01-02T19:21:04.104Z,59.00
2019-01-02T19:23:34.382Z,59.30
2019-01-02T19:26:04.738Z,57.20
2019-01-02T19:28:35.160Z,57.90
2019-01-02T19:31:05.507Z,59.50
2019-01-02T19:33:35.837Z,60.60
2019-01-02T19:36:06.347Z,60.00
2019-01-02T19:38:36.664Z,59.20
2019-01-02T19:41:07.025Z,59.30
2019-01-02T19:43:37.417Z,59.00
2019-01-02T19:46:07.810Z,59.40
2019-01-02T19:48:39.369Z,58.80
2019-01-02T19:51:10.426Z,58.40
2019-01-02T19:53:40.711Z,57.90
2019-01-02T19:56:11.185Z,58.30
2019-01-02T19:58:41.575Z,58.20
2019-01-02T20:01:11.949Z,58.00
2019-01-02T20:03:42.286Z,58.20
2019-01-02T20:06:12.883Z,59.00
2019-01-02T20:08:43.189Z,58.90
2019-01-02T20:11:13.619Z,58.30
2019-01-02T20:13:44.040Z,57.20
2019-01-02T20:16:14.369Z,56.70
2019-01-02T20:18:44.680Z,56.40
2019-01-02T20:21:15.149Z,56.50
2019-01-02T20:23:45.501Z,55.50
2019-01-02T20:26:15.829Z,56.10
2019-01-02T20:28:46.323Z,56.00
2019-01-02T20:31:16.705Z,56.60
2019-01-02T20:33:47.022Z,56.90
2019-01-02T20:36:18.078Z,57.80
2019-01-02T20:38:48.452Z,58.40
2019-01-02T20:41:18.855Z,58.10
2019-01-02T20:43:49.274Z,58.10
2019-01-02T20:46:19.604Z,58.10
2019-01-02T20:48:49.958Z,58.00
2019-01-02T20:51:21.043Z,58.60
2019-01-02T20:53:53.142Z,59.60
2019-01-02T20:56:23.604Z,58.90
2019-01-02T20:58:53.905Z,58.00
2019-01-02T21:01:24.238Z,58.00
2019-01-02T21:03:55.218Z,58.90
2019-01-02T21:06:25.632Z,59.10
2019-01-02T21:08:55.979Z,60.20
2019-01-02T21:11:27.803Z,61.40
2019-01-02T21:13:58.170Z,60.50
2019-01-02T21:16:28.471Z,61.60
2019-01-02T21:18:58.878Z,63.50
2019-01-02T21:21:29.233Z,63.40
2019-01-02T21:23:59.587Z,64.50
2019-01-02T21:26:30.450Z,65.80
2019-01-02T21:29:00.780Z,66.00
2019-01-02T21:31:31.071Z,67.70
2019-01-02T21:34:02.618Z,67.60
2019-01-02T21:36:32.998Z,67.30
2019-01-02T21:39:03.349Z,68.40
2019-01-02T21:41:33.789Z,68.50
2019-01-02T21:44:04.104Z,69.20
2019-01-02T21:46:34.438Z,69.60
2019-01-02T21:49:04.861Z,69.90
2019-01-02T21:51:35.148Z,69.80
2019-01-02T21:54:05.489Z,70.10
2019-01-02T21:56:36.161Z,70.00
2019-01-02T21:59:06.617Z,70.00
2019-01-02T22:01:36.959Z,69.70
2019-01-02T22:04:07.447Z,70.30
2019-01-02T22:06:38.944Z,70.00
2019-01-02T22:09:09.231Z,70.90
2019-01-02T22:11:41.720Z,71.20
2019-01-02T22:14:12.066Z,71.30
2019-01-02T22:16:42.466Z,71.60
2019-01-02T22:19:12.853Z,71.70
2019-01-02T22:21:54.413Z,72.60
2019-01-02T22:24:24.807Z,73.20
2019-01-02T22:26:55.139Z,72.60
2019-01-02T22:29:25.514Z,72.80
2019-01-02T22:31:55.950Z,73.30
2019-01-02T22:34:26.290Z,74.10
2019-01-02T22:36:56.608Z,74.50
2019-01-02T22:39:28.720Z,73.40
2019-01-02T22:41:59.049Z,73.50
2019-01-02T22:44:29.417Z,73.60
2019-01-02T22:47:00.001Z,73.50
2019-01-02T22:49:30.345Z,74.00
2019-01-02T22:52:00.624Z,74.10
2019-01-02T22:54:31.052Z,74.20
2019-01-02T22:57:01.402Z,74.60
2019-01-02T22:59:32.070Z,74.50
2019-01-02T23:02:03.931Z,76.00
2019-01-02T23:04:51.662Z,76.40
2019-01-02T23:07:38.802Z,77.10
2019-01-02T23:10:22.814Z,77.90
2019-01-02T23:12:57.653Z,77.30
2019-01-02T23:15:29.409Z,77.40
2019-01-02T23:18:09.981Z,77.40
2019-01-02T23:20:57.926Z,79.10
2019-01-02T23:23:39.010Z,80.50
2019-01-02T23:26:13.685Z,81.40
2019-01-02T23:29:01.685Z,81.00
2019-01-02T23:31:42.456Z,81.20
2019-01-02T23:34:26.387Z,80.90
2019-01-02T23:37:14.269Z,81.30
2019-01-02T23:39:51.589Z,81.20
2019-01-02T23:42:29.420Z,81.20
2019-01-02T23:45:13.183Z,81.80
2019-01-02T23:47:47.691Z,82.10
2019-01-02T23:50:35.942Z,82.70
2019-01-02T23:53:13.226Z,82.60
2019-01-02T23:55:45.013Z,82.10
2019-01-02T23:58:19.741Z,82.60
